Time;durP1;ratioP1;P1;durP2;ratioP2;P2;SDS_P1;SDS_P2;PMS_P1;PMS_P2;Temp;Humidity;BMP_temperature;BMP_pressure;BME280_temperature;BME280_humidity;BME280_pressure;Samples;Min_cycle;Max_cycle;Signal;HPM_P1;HPM_P2
2024/02/28 00:02:06;;;;;;;;;;;;;;;5.46;100.00;99801.25;4947049;29;19926;-86
2024/02/28 00:04:31;;;;;;;;;;;;;;;5.49;100.00;99795.91;4945405;29;20397;-86
2024/02/28 00:06:56;;;;;;;;;;;;;;;5.50;100.00;99797.63;4945379;29;20318;-86
2024/02/28 00:09:21;;;;;;;;;;;;;;;5.49;100.00;99801.19;4946567;29;19974;-86
2024/02/28 00:11:47;;;;;;;;;;;;;;;5.49;100.00;99800.28;4946782;29;20368;-86
2024/02/28 00:14:12;;;;;;;;;;;;;;;5.50;100.00;99797.63;4945467;29;19919;-86
2024/02/28 00:16:41;;;;;;;;;;;;;;;5.48;100.00;99798.56;4946823;29;20325;-88
2024/02/28 06:13:00;;;;;;;;;;;;;;;5.10;100.00;100045.38;5469348;23;20312;-86
2024/02/28 06:15:25;;;;;;;;;;;;;;;5.08;100.00;100049.81;4982201;28;19921;-87
2024/02/28 06:17:51;;;;;;;;;;;;;;;5.08;100.00;100060.31;4983629;28;19913;-87
2024/02/28 06:20:16;;;;;;;;;;;;;;;5.08;100.00;100071.66;4965867;28;19922;-87
2024/02/28 06:22:41;;;;;;;;;;;;;;;5.11;100.00;100072.53;4983161;28;19914;-87
2024/02/28 06:25:13;;;;;;;;;;;;;;;5.08;100.00;100069.03;4981445;28;19922;-88
2024/02/28 06:27:38;;;;;;;;;;;;;;;5.06;100.00;100072.59;4982064;28;20025;-88
2024/02/28 06:30:04;;;;;;;;;;;;;;;5.06;100.00;100080.47;4982944;28;20021;-88
2024/02/28 06:32:29;;;;;;;;;;;;;;;5.08;100.00;100089.19;4983009;28;19918;-87
2024/02/28 06:34:54;;;;;;;;;;;;;;;5.08;100.00;100084.81;4983102;28;19921;-87
2024/02/28 06:37:20;;;;;;;;;;;;;;;5.07;100.00;100083.09;4982998;28;19919;-87
2024/02/28 06:39:45;;;;;;;;;;;;;;;5.09;100.00;100088.31;4982825;28;20273;-88
2024/02/28 06:42:10;;;;;;;;;;;;;;;5.08;100.00;100090.06;4981933;28;19917;-87
2024/02/28 06:44:35;;;;;;;;;;;;;;;5.08;100.00;100095.31;4983144;28;19925;-86
2024/02/28 06:47:01;;;;;;;;;;;;;;;5.07;100.00;100095.34;4982633;28;20008;-87
2024/02/28 06:49:26;;;;;;;;;;;;;;;5.05;100.00;100095.34;4981652;28;20392;-87
2024/02/28 06:51:51;;;;;;;;;;;;;;;5.07;100.00;100103.22;4985042;28;20292;-87
2024/02/28 06:54:16;;;;;;;;;;;;;;;5.07;100.00;100104.09;4986852;28;19918;-87
2024/02/28 06:56:42;;;;;;;;;;;;;;;5.07;100.00;100111.09;4984074;28;19925;-87
2024/02/28 06:59:07;;;;;;;;;;;;;;;5.07;100.00;100108.47;4986479;28;19953;-92
2024/02/28 07:01:32;;;;;;;;;;;;;;;5.04;100.00;100111.13;4987059;28;19980;-87
2024/02/28 07:03:58;;;;;;;;;;;;;;;5.05;100.00;100118.13;4986733;28;19924;-87
2024/02/28 07:06:23;;;;;;;;;;;;;;;5.04;100.00;100113.75;4986467;28;20301;-86
2024/02/28 07:08:49;;;;;;;;;;;;;;;5.01;100.00;100116.44;4985286;28;19922;-87
2024/02/28 07:11:14;;;;;;;;;;;;;;;5.02;100.00;100116.41;4984924;28;19929;-87
2024/02/28 07:13:40;;;;;;;;;;;;;;;5.04;100.00;100113.75;4985051;28;20452;-86
2024/02/28 07:16:06;;;;;;;;;;;;;;;5.02;100.00;100112.94;4987086;28;20023;-88
2024/02/28 07:18:31;;;;;;;;;;;;;;;5.05;100.00;100120.75;4986238;28;19925;-87
2024/02/28 07:20:56;;;;;;;;;;;;;;;5.07;100.00;100121.59;4986012;28;19922;-88
2024/02/28 07:23:22;;;;;;;;;;;;;;;5.05;100.00;100129.50;4986331;28;19917;-86
2024/02/28 07:25:50;;;;;;;;;;;;;;;5.06;100.00;100127.75;4986736;28;19926;-86
2024/02/28 07:28:15;;;;;;;;;;;;;;;5.06;100.00;100133.88;4983636;28;20329;-87
2024/02/28 07:30:41;;;;;;;;;;;;;;;5.07;100.00;100129.47;4986144;28;19971;-86
2024/02/28 07:33:06;;;;;;;;;;;;;;;5.07;100.00;100133.00;4986628;28;20293;-86
2024/02/28 07:35:31;;;;;;;;;;;;;;;5.07;100.00;100140.88;4984886;28;20037;-87
2024/02/28 07:37:56;;;;;;;;;;;;;;;5.08;100.00;100129.47;4985778;28;20278;-85
2024/02/28 07:40:22;;;;;;;;;;;;;;;5.06;100.00;100139.13;4985926;28;19925;-84
2024/02/28 08:50:47;;;;;;;;;;;;;;;5.01;100.00;100185.63;5796572;23;20006;-88
2024/02/28 08:53:13;;;;;;;;;;;;;;;5.05;100.00;100189.91;4916701;29;19950;-89
2024/02/28 08:55:38;;;;;;;;;;;;;;;5.05;100.00;100184.66;4916278;29;20371;-90
2024/02/28 08:58:03;;;;;;;;;;;;;;;5.03;100.00;100191.69;4917665;29;19930;-88
2024/02/28 09:00:28;;;;;;;;;;;;;;;5.03;100.00;100186.44;4932024;29;19919;-90
2024/02/28 09:02:54;;;;;;;;;;;;;;;5.04;100.00;100182.94;4917445;29;19939;-84
2024/02/28 09:05:19;;;;;;;;;;;;;;;5.06;100.00;100191.66;4915995;29;20298;-86
2024/02/28 09:07:44;;;;;;;;;;;;;;;5.03;100.00;100190.84;4917479;29;19966;-87
2024/02/28 09:13:06;;;;;;;;;;;;;;;5.01;100.00;100195.22;4916830;29;20021;-87
2024/02/28 09:15:32;;;;;;;;;;;;;;;5.03;100.00;100193.47;4916433;29;19915;-87
2024/02/28 09:17:57;;;;;;;;;;;;;;;5.08;100.00;100194.28;4917188;29;19998;-85
2024/02/28 09:20:22;;;;;;;;;;;;;;;5.07;100.00;100192.53;4915797;29;19925;-87
2024/02/28 09:22:47;;;;;;;;;;;;;;;5.02;100.00;100183.84;4917106;29;19979;-87
2024/02/28 09:25:14;;;;;;;;;;;;;;;5.05;100.00;100187.28;4931316;29;20385;-86
2024/02/28 09:27:39;;;;;;;;;;;;;;;5.07;100.00;100184.63;4917226;29;20353;-86
2024/02/28 09:30:05;;;;;;;;;;;;;;;5.08;100.00;100181.13;4916858;29;20010;-86
2024/02/28 09:32:30;;;;;;;;;;;;;;;5.07;100.00;100197.78;4915443;29;20018;-86
2024/02/28 09:34:55;;;;;;;;;;;;;;;5.15;100.00;100201.16;4915571;29;19973;-88
2024/02/28 09:37:22;;;;;;;;;;;;;;;5.11;100.00;100207.38;4916685;29;20332;-84
2024/02/28 09:39:47;;;;;;;;;;;;;;;5.11;100.00;100210.00;4916360;29;19929;-86
2024/02/28 09:42:14;;;;;;;;;;;;;;;5.15;100.00;100210.81;4916679;29;20326;-86
2024/02/28 09:44:40;;;;;;;;;;;;;;;5.14;100.00;100215.19;4916615;29;20014;-88
2024/02/28 09:47:05;;;;;;;;;;;;;;;5.12;100.00;100209.06;4915111;29;20005;-87
2024/02/28 09:49:32;;;;;;;;;;;;;;;5.09;100.00;100211.78;4916565;29;20363;-86
2024/02/28 09:51:58;;;;;;;;;;;;;;;5.11;100.00;100217.00;4933446;29;19926;-87
2024/02/28 09:54:23;;;;;;;;;;;;;;;5.16;100.00;100202.91;4969151;28;19919;-88
2024/02/28 09:56:49;;;;;;;;;;;;;;;5.09;100.00;100206.53;4953413;29;19928;-90
2024/02/28 09:59:15;;;;;;;;;;;;;;;5.10;100.00;100203.00;4952794;29;19981;-90
2024/02/28 10:01:42;;;;;;;;;;;;;;;5.09;100.00;100202.13;4953660;28;19972;-87
2024/02/28 10:04:10;;;;;;;;;;;;;;;5.10;100.00;100208.25;4953309;29;19973;-87
2024/02/28 10:07:12;;;;;;;;;;;;;;;5.11;100.00;100215.25;4953341;28;19919;-92
2024/02/28 10:09:41;;;;;;;;;;;;;;;5.13;100.00;100217.84;4954997;29;19940;-95
2024/02/28 10:12:06;;;;;;;;;;;;;;;5.15;100.00;100222.19;4954185;28;19950;-91
2024/02/28 10:14:31;;;;;;;;;;;;;;;5.12;100.00;100226.59;4953501;29;19962;-90
2024/02/28 10:16:57;;;;;;;;;;;;;;;5.16;100.00;100217.81;4954438;29;19926;-92
2024/02/28 10:19:22;;;;;;;;;;;;;;;5.13;100.00;100220.47;4953526;29;19918;-88
2024/02/28 10:21:47;;;;;;;;;;;;;;;5.18;100.00;100222.13;4952936;29;19966;-90
2024/02/28 10:24:13;;;;;;;;;;;;;;;5.18;100.00;100222.13;4954726;29;19923;-92
2024/02/28 10:26:55;;;;;;;;;;;;;;;5.13;100.00;100217.84;4952680;28;19925;-94
2024/02/28 10:29:20;;;;;;;;;;;;;;;5.16;100.00;100223.06;4954328;28;20619;-89
2024/02/28 10:31:45;;;;;;;;;;;;;;;5.16;100.00;100228.31;4954004;29;20017;-88
2024/02/28 10:34:11;;;;;;;;;;;;;;;5.15;100.00;100237.94;4953986;28;19922;-91
2024/02/28 10:36:37;;;;;;;;;;;;;;;5.17;100.00;100237.91;4952713;29;19922;-92
2024/02/28 10:39:03;;;;;;;;;;;;;;;5.19;100.00;100241.41;4952800;29;20071;-83
2024/02/28 10:41:32;;;;;;;;;;;;;;;5.18;100.00;100240.53;4954190;28;20403;-89
2024/02/28 10:43:58;;;;;;;;;;;;;;;5.15;100.00;100251.06;4953960;29;20082;-87
2024/02/28 10:46:23;;;;;;;;;;;;;;;5.17;100.00;100257.19;4953987;28;20432;-89
2024/02/28 10:48:54;;;;;;;;;;;;;;;5.18;100.00;100261.53;4968746;28;20288;-89
2024/02/28 10:51:22;;;;;;;;;;;;;;;5.19;100.00;100265.06;4952631;28;19991;-85
2024/02/28 10:53:49;;;;;;;;;;;;;;;5.19;100.00;100267.69;4954139;29;19926;-86
2024/02/28 10:56:16;;;;;;;;;;;;;;;5.21;100.00;100264.13;4952617;29;19989;-87
2024/02/28 10:58:51;;;;;;;;;;;;;;;5.21;100.00;100266.75;4951802;29;20421;-86
2024/02/28 11:01:19;;;;;;;;;;;;;;;5.19;100.00;100260.66;4953758;29;19989;-87
2024/02/28 11:03:48;;;;;;;;;;;;;;;5.24;100.00;100261.47;4952809;29;19930;-92
2024/02/28 11:06:17;;;;;;;;;;;;;;;5.20;100.00;100265.03;4952009;29;19929;-90
2024/02/28 11:08:45;;;;;;;;;;;;;;;5.20;100.00;100257.16;4953857;28;19918;-90
2024/02/28 11:11:13;;;;;;;;;;;;;;;5.25;100.00;100259.72;4953940;28;19922;-88
2024/02/28 11:13:39;;;;;;;;;;;;;;;5.23;100.00;100257.13;4968261;28;20383;-87
2024/02/28 11:16:08;;;;;;;;;;;;;;;5.23;100.00;100257.13;4953856;29;19923;-88
2024/02/28 11:18:33;;;;;;;;;;;;;;;5.21;100.00;100252.75;4970558;28;20384;-89
2024/02/28 11:21:14;;;;;;;;;;;;;;;5.22;100.00;100246.63;4951090;29;19925;-88
2024/02/28 11:23:39;;;;;;;;;;;;;;;5.19;100.00;100247.53;4953707;28;19919;-86
2024/02/28 11:26:05;;;;;;;;;;;;;;;5.23;100.00;100246.63;4952274;29;20366;-84
2024/02/28 11:28:32;;;;;;;;;;;;;;;5.20;100.00;100246.66;4953601;29;19983;-86
2024/02/28 11:30:58;;;;;;;;;;;;;;;5.21;100.00;100252.75;4953590;28;19918;-90
2024/02/28 11:33:23;;;;;;;;;;;;;;;5.21;100.00;100252.75;4952067;29;19973;-85
2024/02/28 11:35:57;;;;;;;;;;;;;;;5.19;100.00;100251.94;4952162;29;19923;-88
2024/02/28 11:38:25;;;;;;;;;;;;;;;5.20;100.00;100246.66;4955781;28;19966;-87
2024/02/28 11:40:51;;;;;;;;;;;;;;;5.21;100.00;100250.13;4955622;29;19922;-86
2024/02/28 11:43:17;;;;;;;;;;;;;;;5.21;100.00;100251.00;4956831;29;20474;-86
2024/02/28 11:45:51;;;;;;;;;;;;;;;5.21;100.00;100245.75;4957338;29;19918;-86
2024/02/28 11:48:16;;;;;;;;;;;;;;;5.19;100.00;100241.41;4958453;29;19981;-89
2024/02/28 11:50:42;;;;;;;;;;;;;;;5.20;100.00;100240.50;4954662;29;19953;-88
2024/02/28 11:53:08;;;;;;;;;;;;;;;5.23;100.00;100241.34;4956914;28;20001;-90
2024/02/28 11:55:33;;;;;;;;;;;;;;;5.19;100.00;100239.66;4957330;28;19923;-88
2024/02/28 11:57:58;;;;;;;;;;;;;;;5.20;100.00;100238.78;4956829;28;19926;-89
2024/02/28 12:00:24;;;;;;;;;;;;;;;5.17;100.00;100236.19;4956509;28;20444;-89
2024/02/28 12:02:49;;;;;;;;;;;;;;;5.19;100.00;100238.78;4957073;28;20382;-88
2024/02/28 12:05:19;;;;;;;;;;;;;;;5.22;100.00;100249.25;4955712;29;20283;-91
2024/02/28 12:07:45;;;;;;;;;;;;;;;5.24;100.00;100244.84;4956645;29;20286;-92
2024/02/28 12:10:10;;;;;;;;;;;;;;;5.26;100.00;100240.44;4956372;29;19922;-90
2024/02/28 12:12:35;;;;;;;;;;;;;;;5.22;100.00;100247.50;4955015;29;19924;-87
2024/02/28 12:15:03;;;;;;;;;;;;;;;5.22;100.00;100244.88;4956449;28;19977;-90
2024/02/28 12:17:28;;;;;;;;;;;;;;;5.23;100.00;100238.72;4956443;28;19926;-86
2024/02/28 12:19:54;;;;;;;;;;;;;;;5.23;100.00;100236.09;4953793;29;20382;-90
2024/02/28 12:22:19;;;;;;;;;;;;;;;5.24;100.00;100243.06;4956327;29;20017;-87
2024/02/28 12:24:48;;;;;;;;;;;;;;;5.24;100.00;100237.81;4956168;28;19934;-88
2024/02/28 12:27:13;;;;;;;;;;;;;;;5.25;100.00;100231.69;4956057;28;19922;-89
2024/02/28 12:29:38;;;;;;;;;;;;;;;5.25;100.00;100223.81;4956046;29;20372;-84
2024/02/28 12:32:04;;;;;;;;;;;;;;;5.25;100.00;100228.19;4956047;28;19929;-86
2024/02/28 12:34:29;;;;;;;;;;;;;;;5.26;100.00;100227.28;4956237;28;19929;-87
2024/02/28 12:36:54;;;;;;;;;;;;;;;5.31;100.00;100227.22;4954791;29;19924;-90
2024/02/28 12:39:20;;;;;;;;;;;;;;;5.28;100.00;100231.66;4955207;29;20341;-90
2024/02/28 12:41:45;;;;;;;;;;;;;;;5.24;100.00;100227.31;4956094;29;20357;-86
2024/02/28 12:44:10;;;;;;;;;;;;;;;5.26;100.00;100228.19;4955884;29;20264;-86
2024/02/28 12:46:37;;;;;;;;;;;;;;;5.27;100.00;100218.53;4955657;29;20413;-86
2024/02/28 12:49:02;;;;;;;;;;;;;;;5.27;100.00;100211.50;4955971;28;19922;-87
2024/02/28 12:51:45;;;;;;;;;;;;;;;5.27;100.00;100214.13;4954366;28;19970;-86
2024/02/28 12:54:10;;;;;;;;;;;;;;;5.26;100.00;100212.41;4970569;28;19922;-88
2024/02/28 12:56:36;;;;;;;;;;;;;;;5.26;100.00;100217.66;4955551;28;19918;-88
2024/02/28 12:59:02;;;;;;;;;;;;;;;5.29;100.00;100211.47;4955576;28;19922;-87
2024/02/28 13:01:28;;;;;;;;;;;;;;;5.28;100.00;100201.84;4955482;29;20362;-87
2024/02/28 13:03:54;;;;;;;;;;;;;;;5.27;100.00;100206.25;4955500;28;19992;-87
2024/02/28 13:06:22;;;;;;;;;;;;;;;5.31;100.00;100200.94;4954735;28;20373;-91
2024/02/28 13:08:54;;;;;;;;;;;;;;;5.33;100.00;100201.78;4955743;29;20282;-89
2024/02/28 13:11:22;;;;;;;;;;;;;;;5.29;100.00;100200.97;4955229;29;19919;-84
2024/02/28 13:13:54;;;;;;;;;;;;;;;5.33;100.00;100193.91;4955241;29;19968;-91
2024/02/28 13:16:29;;;;;;;;;;;;;;;;;;;;;
2024/02/28 13:18:55;;;;;;;;;;;;;;;5.27;100.00;100198.38;4955055;29;19941;-85
2024/02/28 13:21:20;;;;;;;;;;;;;;;5.31;100.00;100190.44;4953818;29;20464;-88
2024/02/28 13:23:45;;;;;;;;;;;;;;;5.30;100.00;100191.31;4954905;28;19922;-87
2024/02/28 13:26:17;;;;;;;;;;;;;;;5.32;100.00;100186.94;4953758;29;19918;-87
2024/02/28 13:28:42;;;;;;;;;;;;;;;5.32;100.00;100192.19;4954189;29;20013;-85
2024/02/28 13:31:09;;;;;;;;;;;;;;;5.34;100.00;100178.13;4954703;28;20005;-85
2024/02/28 13:33:36;;;;;;;;;;;;;;;5.32;100.00;100181.69;4954852;28;20589;-84
2024/02/28 13:36:02;;;;;;;;;;;;;;;5.30;100.00;100178.19;4952634;29;19922;-86
2024/02/28 13:38:27;;;;;;;;;;;;;;;5.31;100.00;100179.94;4954862;28;19923;-87
2024/02/28 13:40:52;;;;;;;;;;;;;;;5.27;100.00;100174.72;4954718;28;20429;-89
2024/02/28 13:43:21;;;;;;;;;;;;;;;5.30;100.00;100173.81;4953528;29;20334;-88
2024/02/28 13:45:47;;;;;;;;;;;;;;;5.31;100.00;100170.28;4954715;29;19953;-85
2024/02/28 13:48:16;;;;;;;;;;;;;;;5.33;100.00;100162.38;4954331;29;21150;-86
2024/02/28 13:50:41;;;;;;;;;;;;;;;5.31;100.00;100162.38;4953085;29;20287;-88
2024/02/28 13:53:07;;;;;;;;;;;;;;;5.30;100.00;100157.16;4954518;28;20017;-92
2024/02/28 13:55:32;;;;;;;;;;;;;;;5.30;100.00;100151.91;4954600;29;19929;-89
2024/02/28 13:57:57;;;;;;;;;;;;;;;5.31;100.00;100149.25;4952970;29;20362;-90
2024/02/28 14:00:23;;;;;;;;;;;;;;;5.37;100.00;100148.31;4953787;28;19918;-84
2024/02/28 14:02:48;;;;;;;;;;;;;;;5.34;100.00;100145.72;4954669;28;20400;-85
2024/02/28 14:05:14;;;;;;;;;;;;;;;5.36;100.00;100149.19;4953014;29;19954;-85
2024/02/28 14:07:39;;;;;;;;;;;;;;;5.35;100.00;100140.44;4952705;29;20367;-86
2024/02/28 14:10:05;;;;;;;;;;;;;;;5.38;100.00;100139.53;4952839;29;19966;-85
2024/02/28 14:12:30;;;;;;;;;;;;;;;5.34;100.00;100145.72;4954254;28;20381;-85
2024/02/28 14:14:55;;;;;;;;;;;;;;;5.38;100.00;100142.16;4952927;29;19918;-87
2024/02/28 14:17:21;;;;;;;;;;;;;;;5.36;100.00;100138.66;4954413;29;19919;-82
2024/02/28 14:19:48;;;;;;;;;;;;;;;5.40;100.00;100143.00;4953362;29;19933;-84
2024/02/28 14:22:13;;;;;;;;;;;;;;;5.38;100.00;100139.53;4952719;29;19919;-85
2024/02/28 14:24:38;;;;;;;;;;;;;;;5.39;100.00;100138.63;4953358;28;19923;-85
2024/02/28 14:27:04;;;;;;;;;;;;;;;5.43;100.00;100145.59;4954257;28;19926;-87
2024/02/28 14:29:29;;;;;;;;;;;;;;;5.38;100.00;100144.78;4952915;29;19922;-88
2024/02/28 14:31:54;;;;;;;;;;;;;;;5.38;100.00;100147.44;4953949;29;19919;-86
2024/02/28 14:34:20;;;;;;;;;;;;;;;5.36;100.00;100143.94;4953864;29;20078;-89
2024/02/28 14:36:45;;;;;;;;;;;;;;;5.44;100.00;100147.28;4951365;29;19923;-88
2024/02/28 14:39:14;;;;;;;;;;;;;;;5.39;100.00;100146.50;4953952;29;19918;-90
2024/02/28 14:41:40;;;;;;;;;;;;;;;5.40;100.00;100143.84;4953361;29;19930;-86
2024/02/28 14:44:05;;;;;;;;;;;;;;;5.41;100.00;100145.59;4952024;29;19918;-88
2024/02/28 14:46:31;;;;;;;;;;;;;;;5.45;100.00;100146.41;4953691;29;20393;-86
2024/02/28 14:48:56;;;;;;;;;;;;;;;5.40;100.00;100143.00;4953907;28;19923;-87
2024/02/28 14:51:21;;;;;;;;;;;;;;;5.39;100.00;100151.75;4951201;29;19923;-87
2024/02/28 14:53:47;;;;;;;;;;;;;;;5.41;100.00;100142.97;4953516;28;19927;-87
2024/02/28 14:56:23;;;;;;;;;;;;;;;5.36;100.00;100150.06;4953815;28;19925;-92
2024/02/28 14:58:48;;;;;;;;;;;;;;;5.37;100.00;100146.53;4968085;28;20448;-89
2024/02/28 15:01:13;;;;;;;;;;;;;;;5.41;100.00;100150.00;4953803;29;20017;-88
2024/02/28 15:03:39;;;;;;;;;;;;;;;5.35;100.00;100147.47;4952223;29;19923;-84
2024/02/28 15:06:05;;;;;;;;;;;;;;;5.40;100.00;100137.75;4952591;28;19923;-86
2024/02/28 15:08:30;;;;;;;;;;;;;;;5.43;100.00;100149.06;4953836;29;19922;-87
2024/02/28 15:10:56;;;;;;;;;;;;;;;5.41;100.00;100145.59;4953767;28;20370;-88
2024/02/28 15:13:23;;;;;;;;;;;;;;;5.42;100.00;100136.81;4955243;29;19919;-84
2024/02/28 15:15:48;;;;;;;;;;;;;;;5.40;100.00;100148.25;4957924;28;20432;-87
2024/02/28 15:18:14;;;;;;;;;;;;;;;5.42;100.00;100141.22;4957759;29;19919;-85
2024/02/28 15:20:42;;;;;;;;;;;;;;;5.41;100.00;100139.50;4954966;29;20002;-91
2024/02/28 15:23:07;;;;;;;;;;;;;;;5.40;100.00;100138.59;4957486;29;19919;-87
2024/02/28 15:25:33;;;;;;;;;;;;;;;5.40;100.00;100135.13;4957291;29;20362;-87
2024/02/28 15:27:58;;;;;;;;;;;;;;;5.48;100.00;100137.63;4955886;29;19918;-85
2024/02/28 15:30:23;;;;;;;;;;;;;;;5.41;100.00;100131.59;4957442;29;20423;-86
2024/02/28 15:32:48;;;;;;;;;;;;;;;5.43;100.00;100140.31;4957178;29;19918;-87
2024/02/28 15:35:14;;;;;;;;;;;;;;;5.48;100.00;100135.00;4954990;29;20416;-91
2024/02/28 15:37:39;;;;;;;;;;;;;;;5.44;100.00;100136.78;4957159;28;20309;-85
2024/02/28 15:40:06;;;;;;;;;;;;;;;5.41;100.00;100124.59;4957310;29;20393;-86
2024/02/28 15:42:32;;;;;;;;;;;;;;;5.43;100.00;100132.44;4955656;29;19956;-87
2024/02/28 15:44:57;;;;;;;;;;;;;;;5.46;100.00;100124.50;4956847;28;20001;-87
2024/02/28 15:47:22;;;;;;;;;;;;;;;5.52;100.00;100128.78;4956817;29;19925;-86
2024/02/28 15:49:47;;;;;;;;;;;;;;;5.51;100.00;100129.69;4954715;29;19919;-86
2024/02/28 15:52:13;;;;;;;;;;;;;;;5.50;100.00;100127.94;4955431;29;19923;-90
2024/02/28 15:54:38;;;;;;;;;;;;;;;5.50;100.00;100128.81;4955372;29;20393;-85
2024/02/28 15:57:03;;;;;;;;;;;;;;;5.42;100.00;100126.28;4956864;29;19957;-87
2024/02/28 15:59:30;;;;;;;;;;;;;;;5.44;100.00;100126.28;4956774;28;20005;-86
2024/02/28 16:01:55;;;;;;;;;;;;;;;5.46;100.00;100127.13;4956733;28;19923;-86
2024/02/28 16:04:20;;;;;;;;;;;;;;;5.48;100.00;100138.47;4956428;29;19930;-84
2024/02/28 16:11:49;;;;;;;;;;;;;;;5.44;100.00;100129.78;5214372;23;19930;-87
2024/02/28 16:14:17;;;;;;;;;;;;;;;5.44;100.00;100139.41;4985315;28;20313;-91
2024/02/28 16:16:42;;;;;;;;;;;;;;;5.41;100.00;100135.09;5000307;28;19918;-89
2024/02/28 16:19:07;;;;;;;;;;;;;;;5.40;100.00;100133.34;4985639;28;19926;-91
2024/02/28 16:21:32;;;;;;;;;;;;;;;5.45;100.00;100131.50;4984211;28;19918;-88
2024/02/28 16:23:59;;;;;;;;;;;;;;;5.44;100.00;100128.91;5333520;23;19930;-87
2024/02/28 16:26:24;;;;;;;;;;;;;;;5.42;100.00;100128.06;4955241;29;20002;-87
2024/02/28 16:28:49;;;;;;;;;;;;;;;5.49;100.00;100129.72;4954995;29;20417;-86
2024/02/28 16:31:23;;;;;;;;;;;;;;;5.42;100.00;100128.94;4956443;29;19919;-91
2024/02/28 16:33:49;;;;;;;;;;;;;;;5.45;100.00;100125.38;4954394;29;20021;-89
2024/02/28 16:36:14;;;;;;;;;;;;;;;5.43;100.00;100132.44;4954817;28;20025;-88
2024/02/28 16:38:39;;;;;;;;;;;;;;;5.41;100.00;100128.97;4956007;29;20354;-86
2024/02/28 16:41:05;;;;;;;;;;;;;;;5.44;100.00;100118.38;4956156;29;19972;-90
2024/02/28 16:43:30;;;;;;;;;;;;;;;5.38;100.00;100126.41;4955958;28;19919;-85
2024/02/28 16:45:56;;;;;;;;;;;;;;;5.43;100.00;100121.94;4955949;29;19925;-87
2024/02/28 16:48:22;;;;;;;;;;;;;;;5.41;100.00;100132.47;4955758;28;20396;-87
2024/02/28 16:50:47;;;;;;;;;;;;;;;5.40;100.00;100117.56;4953929;29;19919;-90
2024/02/28 16:53:13;;;;;;;;;;;;;;;5.44;100.00;100124.53;4955904;29;19950;-86
2024/02/28 16:55:39;;;;;;;;;;;;;;;5.41;100.00;100113.22;4956107;28;19919;-87
2024/02/28 16:58:05;;;;;;;;;;;;;;;5.41;100.00;100118.47;4954476;29;20305;-87
2024/02/28 17:00:30;;;;;;;;;;;;;;;5.42;100.00;100125.44;4955691;28;20441;-86
2024/02/28 17:02:55;;;;;;;;;;;;;;;5.38;100.00;100116.75;4955516;29;20017;-88
2024/02/28 17:05:21;;;;;;;;;;;;;;;5.40;100.00;100116.72;4954397;29;19929;-87
2024/02/28 17:07:46;;;;;;;;;;;;;;;5.42;100.00;100125.44;4955407;28;20008;-85
2024/02/28 17:10:11;;;;;;;;;;;;;;;5.42;100.00;100125.44;4955446;29;19922;-86
2024/02/28 17:12:36;;;;;;;;;;;;;;;5.42;100.00;100120.19;4955110;29;20432;-85
2024/02/28 17:15:02;;;;;;;;;;;;;;;5.40;100.00;100121.97;4955299;29;19922;-85
2024/02/28 17:17:27;;;;;;;;;;;;;;;5.46;100.00;100121.88;4955239;29;19950;-85
2024/02/28 17:19:53;;;;;;;;;;;;;;;5.47;100.00;100123.59;4954414;29;19926;-88
2024/02/28 17:22:18;;;;;;;;;;;;;;;5.43;100.00;100137.69;4955264;28;19923;-85
2024/02/28 17:24:44;;;;;;;;;;;;;;;5.40;100.00;100128.09;4954904;28;20374;-86
2024/02/28 17:27:09;;;;;;;;;;;;;;;5.42;100.00;100131.56;4955152;29;19925;-85
2024/02/28 17:29:37;;;;;;;;;;;;;;;5.40;100.00;100125.47;4955123;28;19929;-88
2024/02/28 17:32:03;;;;;;;;;;;;;;;5.40;100.00;100137.75;4954440;29;19922;-86
2024/02/28 17:34:28;;;;;;;;;;;;;;;5.42;100.00;100141.22;4954332;28;19981;-85
2024/02/28 17:36:53;;;;;;;;;;;;;;;5.45;100.00;100138.53;4953436;28;19922;-89
2024/02/28 17:39:20;;;;;;;;;;;;;;;5.43;100.00;100140.31;4954899;29;19919;-84
2024/02/28 17:41:48;;;;;;;;;;;;;;;5.42;100.00;100143.84;4954744;28;19919;-88
2024/02/28 17:44:14;;;;;;;;;;;;;;;5.42;100.00;100146.47;4952875;29;20395;-88
2024/02/28 17:46:39;;;;;;;;;;;;;;;5.40;100.00;100146.47;4954505;29;19977;-86
2024/02/28 17:49:07;;;;;;;;;;;;;;;5.44;100.00;100144.66;4954454;28;19918;-88
2024/02/28 17:51:35;;;;;;;;;;;;;;;5.43;100.00;100137.69;4952715;29;20354;-85
2024/02/28 17:54:01;;;;;;;;;;;;;;;5.42;100.00;100146.47;4954906;28;19918;-85
2024/02/28 17:56:26;;;;;;;;;;;;;;;5.42;100.00;100139.44;4954781;28;20010;-85
2024/02/28 17:58:52;;;;;;;;;;;;;;;5.41;100.00;100134.25;4954469;29;19918;-89
2024/02/28 18:01:19;;;;;;;;;;;;;;;5.44;100.00;100140.31;4954520;29;19915;-89
2024/02/28 18:03:45;;;;;;;;;;;;;;;5.47;100.00;100142.00;4954425;29;19926;-92
2024/02/28 18:06:10;;;;;;;;;;;;;;;5.42;100.00;100147.31;4953221;29;19919;-87
2024/02/28 18:08:36;;;;;;;;;;;;;;;5.39;100.00;100152.66;4954452;29;19965;-90
2024/02/28 18:11:04;;;;;;;;;;;;;;;5.42;100.00;100155.22;4954373;28;19923;-88
2024/02/28 18:13:29;;;;;;;;;;;;;;;5.37;100.00;100149.16;4954689;28;19922;-83
2024/02/28 18:15:55;;;;;;;;;;;;;;;5.45;100.00;100149.03;4954222;28;20396;-86
2024/02/28 18:18:20;;;;;;;;;;;;;;;5.44;100.00;100142.03;4954116;29;19973;-87
2024/02/28 18:20:45;;;;;;;;;;;;;;;5.39;100.00;100138.63;4952926;29;20369;-84
2024/02/28 18:23:10;;;;;;;;;;;;;;;5.41;100.00;100148.22;4953830;29;20289;-85
2024/02/28 18:25:36;;;;;;;;;;;;;;;5.38;100.00;100137.78;4954067;29;20021;-84
2024/02/28 18:28:01;;;;;;;;;;;;;;;5.40;100.00;100133.34;4953995;28;20382;-84
2024/02/28 18:30:26;;;;;;;;;;;;;;;5.40;100.00;100135.97;4954080;29;19995;-86
2024/02/28 18:32:52;;;;;;;;;;;;;;;5.40;100.00;100132.50;4953847;29;19923;-84
2024/02/28 18:35:17;;;;;;;;;;;;;;;5.42;100.00;100133.31;4952711;29;20414;-84
2024/02/28 18:37:43;;;;;;;;;;;;;;;5.41;100.00;100135.09;4953896;28;19926;-85
2024/02/28 18:40:12;;;;;;;;;;;;;;;5.41;100.00;100139.50;4953894;28;19922;-83
2024/02/28 18:42:37;;;;;;;;;;;;;;;5.39;100.00;100134.25;4953526;29;19929;-88
2024/02/28 18:45:06;;;;;;;;;;;;;;;5.41;100.00;100132.47;4952487;29;20322;-84
2024/02/28 18:47:31;;;;;;;;;;;;;;;5.42;100.00;100122.81;4958803;28;19922;-84
2024/02/28 18:49:56;;;;;;;;;;;;;;;5.48;100.00;100132.38;4958935;28;19919;-83
2024/02/28 18:52:22;;;;;;;;;;;;;;;5.40;100.00;100128.09;4958777;29;19918;-82
2024/02/28 18:54:47;;;;;;;;;;;;;;;5.42;100.00;100130.69;4960392;29;20025;-85
2024/02/28 18:57:12;;;;;;;;;;;;;;;5.41;100.00;100121.94;4960378;28;20285;-86
2024/02/28 18:59:38;;;;;;;;;;;;;;;5.42;100.00;100120.19;4961740;29;19922;-85
2024/02/28 19:02:04;;;;;;;;;;;;;;;5.39;100.00;100120.22;4960373;29;19919;-84
2024/02/28 19:04:30;;;;;;;;;;;;;;;5.43;100.00;100106.16;4960082;28;19933;-85
2024/02/28 19:06:55;;;;;;;;;;;;;;;5.40;100.00;100120.22;4958820;28;20001;-83
2024/02/28 19:09:20;;;;;;;;;;;;;;;5.41;100.00;100121.09;4960039;29;19923;-85
2024/02/28 19:11:47;;;;;;;;;;;;;;;5.39;100.00;100123.75;4960458;28;19926;-88
2024/02/28 19:14:12;;;;;;;;;;;;;;;5.41;100.00;100121.09;4960156;28;20013;-86
2024/02/28 19:16:38;;;;;;;;;;;;;;;5.40;100.00;100121.97;4959136;29;19927;-84
2024/02/28 19:19:06;;;;;;;;;;;;;;;5.35;100.00;100124.69;4959882;28;19927;-87
2024/02/28 19:21:34;;;;;;;;;;;;;;;5.39;100.00;100122.84;4958769;28;20424;-85
2024/02/28 19:23:59;;;;;;;;;;;;;;;5.42;100.00;100115.78;4959462;29;19964;-89
2024/02/28 19:26:24;;;;;;;;;;;;;;;5.41;100.00;100119.31;4958547;29;19994;-84
2024/02/28 19:28:50;;;;;;;;;;;;;;;5.40;100.00;100112.31;4960333;28;19929;-88
2024/02/28 19:31:18;;;;;;;;;;;;;;;5.40;100.00;100117.56;4958996;29;19919;-85
2024/02/28 19:33:43;;;;;;;;;;;;;;;5.38;100.00;100129.88;4959850;29;19919;-90
2024/02/28 19:36:09;;;;;;;;;;;;;;;5.41;100.00;100128.97;4958910;29;19922;-88
2024/02/28 19:38:34;;;;;;;;;;;;;;;5.41;100.00;100126.34;4960408;28;19926;-85
2024/02/28 19:41:00;;;;;;;;;;;;;;;5.40;100.00;100127.22;4960631;29;19942;-86
2024/02/28 19:43:25;;;;;;;;;;;;;;;5.39;100.00;100133.38;4960931;28;19926;-85